Time;durP1;ratioP1;P1;durP2;ratioP2;P2;SDS_P1;SDS_P2;PMS_P1;PMS_P2;Temp;Humidity;BMP_temperature;BMP_pressure;BME280_temperature;BME280_humidity;BME280_pressure;Samples;Min_cycle;Max_cycle;Signal;HPM_P1;HPM_P2
2021/05/07 00:01:05;;;;;;;4.07;1.73;;;14.50;99.90;;;;;;5015431;28;20486;-75
2021/05/07 00:03:31;;;;;;;3.38;1.73;;;14.40;99.90;;;;;;5015524;28;20076;-75
2021/05/07 00:05:57;;;;;;;6.28;1.60;;;14.50;99.90;;;;;;5015125;28;20409;-75
2021/05/07 00:08:26;;;;;;;2.50;1.58;;;14.60;99.90;;;;;;5015532;28;20417;-75
2021/05/07 00:10:53;;;;;;;8.87;2.00;;;14.60;99.90;;;;;;5015488;28;20038;-75
2021/05/07 00:13:18;;;;;;;3.05;1.70;;;14.70;99.90;;;;;;5014062;28;20284;-75
2021/05/07 00:15:44;;;;;;;1.48;1.38;;;14.80;99.90;;;;;;5013976;28;20018;-75
2021/05/07 00:18:10;;;;;;;2.00;1.25;;;14.80;99.90;;;;;;5015225;28;20026;-75
2021/05/07 00:20:36;;;;;;;1.95;1.30;;;14.70;99.90;;;;;;5014963;28;20064;-75
2021/05/07 00:23:02;;;;;;;3.53;1.73;;;14.60;99.90;;;;;;5015108;28;20034;-75
2021/05/07 00:25:28;;;;;;;3.70;1.70;;;14.60;99.90;;;;;;5015213;28;20030;-75
2021/05/07 00:28:02;;;;;;;5.18;1.77;;;14.80;99.90;;;;;;5013612;28;20038;-75
2021/05/07 00:30:28;;;;;;;5.35;1.55;;;14.80;99.90;;;;;;5015238;28;20048;-75
2021/05/07 00:32:54;;;;;;;3.22;1.50;;;14.80;99.90;;;;;;5015107;28;20537;-75
2021/05/07 00:35:20;;;;;;;4.85;1.70;;;14.80;99.90;;;;;;5014669;28;20129;-75
2021/05/07 00:37:45;;;;;;;3.28;1.30;;;14.70;99.90;;;;;;5015090;28;20072;-75
2021/05/07 00:40:12;;;;;;;6.30;2.17;;;14.80;99.90;;;;;;5014686;28;20378;-75
2021/05/07 00:42:38;;;;;;;3.92;1.63;;;14.90;99.90;;;;;;5015139;28;20079;-75
2021/05/07 00:45:05;;;;;;;4.78;1.50;;;14.90;99.90;;;;;;5014526;28;20104;-75
2021/05/07 00:47:36;;;;;;;3.03;1.55;;;14.80;99.90;;;;;;5014778;28;20040;-75
2021/05/07 00:50:05;;;;;;;6.45;1.90;;;14.80;99.90;;;;;;5014629;28;20029;-75
2021/05/07 00:52:33;;;;;;;1.48;1.38;;;14.70;99.90;;;;;;5014641;28;20109;-75
2021/05/07 00:55:01;;;;;;;3.78;2.15;;;14.70;99.90;;;;;;5014256;28;20026;-75
2021/05/07 00:57:27;;;;;;;11.55;2.22;;;14.80;99.90;;;;;;5014367;28;20123;-75
2021/05/07 00:59:53;;;;;;;4.85;2.00;;;14.60;99.90;;;;;;5014314;28;20034;-75
2021/05/07 01:02:19;;;;;;;5.22;1.83;;;14.60;99.90;;;;;;5013839;28;20540;-75
2021/05/07 01:04:44;;;;;;;7.05;1.58;;;14.50;99.90;;;;;;5012958;28;20080;-75
2021/05/07 01:07:10;;;;;;;5.65;1.95;;;14.50;99.90;;;;;;5014263;28;20030;-75
2021/05/07 01:09:36;;;;;;;4.47;2.22;;;14.50;99.90;;;;;;5014456;28;20022;-75
2021/05/07 01:12:03;;;;;;;5.03;1.73;;;14.50;99.90;;;;;;5014275;28;20037;-75
2021/05/07 01:14:29;;;;;;;5.25;1.90;;;14.50;99.90;;;;;;5014140;28;20072;-75
2021/05/07 01:16:54;;;;;;;5.80;2.03;;;14.50;99.90;;;;;;5014092;28;20030;-75
2021/05/07 01:19:20;;;;;;;4.47;1.50;;;14.50;99.90;;;;;;5014109;28;20390;-75
2021/05/07 01:21:46;;;;;;;7.13;2.00;;;14.40;99.90;;;;;;5014316;28;20034;-75
2021/05/07 01:24:12;;;;;;;4.90;2.03;;;14.40;99.90;;;;;;5014045;28;20375;-75
2021/05/07 01:26:41;;;;;;;5.53;2.22;;;14.40;99.90;;;;;;5013991;28;20457;-75
2021/05/07 01:29:14;;;;;;;6.47;2.00;;;14.40;99.90;;;;;;5013799;28;20030;-75
2021/05/07 01:31:44;;;;;;;6.03;2.28;;;14.40;99.90;;;;;;5013740;28;20109;-75
2021/05/07 01:34:10;;;;;;;5.15;2.10;;;14.40;99.90;;;;;;5013873;28;20033;-75
2021/05/07 01:36:36;;;;;;;7.15;2.05;;;14.40;99.90;;;;;;5013961;28;20475;-75
2021/05/07 01:39:02;;;;;;;4.03;1.92;;;14.30;99.90;;;;;;5013752;28;20113;-75
2021/05/07 01:41:28;;;;;;;7.45;2.67;;;14.20;99.90;;;;;;5013404;28;20042;-75
2021/05/07 01:43:54;;;;;;;5.47;1.90;;;13.90;99.90;;;;;;5013678;28;20022;-75
2021/05/07 01:46:19;;;;;;;4.38;1.95;;;13.80;99.90;;;;;;5013341;28;20076;-75
2021/05/07 01:48:45;;;;;;;5.72;2.05;;;13.70;99.90;;;;;;5013829;28;20026;-75
2021/05/07 01:51:11;;;;;;;4.15;2.25;;;13.60;99.90;;;;;;5012030;28;20038;-75
2021/05/07 01:53:37;;;;;;;5.70;2.03;;;13.70;99.90;;;;;;5013382;28;20370;-75
2021/05/07 01:56:03;;;;;;;7.13;2.78;;;13.70;99.90;;;;;;5013619;28;20034;-75
2021/05/07 01:58:29;;;;;;;10.60;2.85;;;13.70;99.90;;;;;;5011952;28;20029;-75
2021/05/07 02:00:54;;;;;;;8.77;2.70;;;13.70;99.90;;;;;;5013217;28;20030;-75
2021/05/07 02:03:20;;;;;;;5.82;2.78;;;13.70;99.90;;;;;;5013113;28;20116;-75
2021/05/07 02:05:46;;;;;;;8.95;2.78;;;13.90;99.90;;;;;;5013187;28;20518;-75
2021/05/07 02:08:12;;;;;;;6.40;2.58;;;13.90;99.90;;;;;;5013416;28;20069;-75
2021/05/07 02:10:38;;;;;;;7.75;2.78;;;13.80;99.90;;;;;;5011814;28;20465;-75
2021/05/07 02:13:09;;;;;;;5.32;2.45;;;13.90;99.90;;;;;;5011920;28;20026;-74
2021/05/07 02:15:35;;;;;;;8.63;2.70;;;13.80;99.90;;;;;;5012912;28;20508;-75
2021/05/07 02:18:02;;;;;;;5.55;2.30;;;13.60;99.90;;;;;;5013402;28;20375;-75
2021/05/07 02:20:29;;;;;;;7.07;2.67;;;13.60;99.90;;;;;;5012988;28;20026;-75
2021/05/07 02:22:56;;;;;;;6.32;2.78;;;13.50;99.90;;;;;;5013276;28;20067;-75
2021/05/07 02:25:23;;;;;;;7.10;3.17;;;13.50;99.90;;;;;;5011846;28;20061;-75
2021/05/07 02:27:51;;;;;;;5.63;2.75;;;13.40;99.90;;;;;;5013301;28;20029;-75
2021/05/07 02:30:23;;;;;;;6.03;2.92;;;13.50;99.90;;;;;;5012892;28;20105;-75
2021/05/07 02:32:49;;;;;;;4.88;2.88;;;13.30;99.90;;;;;;5013310;28;20080;-75
2021/05/07 02:35:15;;;;;;;5.90;2.53;;;13.40;99.90;;;;;;5013314;28;20490;-75
2021/05/07 02:37:41;;;;;;;7.45;2.78;;;13.40;99.90;;;;;;5013282;28;20478;-75
2021/05/07 02:40:08;;;;;;;7.15;2.80;;;13.40;99.90;;;;;;5013175;28;20040;-75
2021/05/07 02:42:34;;;;;;;7.95;3.08;;;13.40;99.90;;;;;;5012928;28;20453;-75
2021/05/07 02:45:03;;;;;;;6.47;3.05;;;13.20;99.90;;;;;;5012859;28;20034;-75
2021/05/07 02:47:33;;;;;;;7.93;3.60;;;13.40;99.90;;;;;;5012859;28;20018;-75
2021/05/07 02:49:59;;;;;;;3.97;2.65;;;13.40;99.90;;;;;;5013086;28;20494;-75
2021/05/07 02:52:26;;;;;;;6.82;3.00;;;13.40;99.90;;;;;;5012934;28;20026;-75
2021/05/07 02:54:52;;;;;;;8.82;2.90;;;13.50;99.90;;;;;;5013295;28;20039;-75
2021/05/07 02:57:18;;;;;;;5.32;2.50;;;13.60;99.90;;;;;;5012805;28;20544;-75
2021/05/07 02:59:43;;;;;;;6.72;3.17;;;13.50;99.90;;;;;;5012638;28;20365;-75
2021/05/07 03:02:09;;;;;;;4.70;2.83;;;13.50;99.90;;;;;;5012594;28;20391;-75
2021/05/07 03:04:35;;;;;;;5.72;2.78;;;13.40;99.90;;;;;;5012732;28;20116;-75
2021/05/07 03:07:01;;;;;;;4.90;2.80;;;13.40;99.90;;;;;;5011424;28;20080;-75
2021/05/07 03:09:26;;;;;;;4.57;3.40;;;13.40;99.90;;;;;;5012854;28;20101;-75
2021/05/07 03:11:54;;;;;;;7.95;2.83;;;13.50;99.90;;;;;;5012801;28;20030;-75
2021/05/07 03:14:20;;;;;;;3.92;2.60;;;13.70;99.90;;;;;;5012494;28;20041;-75
2021/05/07 03:16:46;;;;;;;5.03;3.03;;;13.50;99.90;;;;;;5012724;28;20030;-75
2021/05/07 03:19:12;;;;;;;3.40;2.95;;;13.50;99.90;;;;;;5016298;28;20479;-75
2021/05/07 03:21:37;;;;;;;4.80;2.75;;;13.40;99.90;;;;;;5016490;28;20033;-75
2021/05/07 03:24:05;;;;;;;5.22;2.78;;;13.40;99.90;;;;;;5016591;28;20026;-75
2021/05/07 03:26:31;;;;;;;11.68;3.90;;;13.40;99.90;;;;;;5016137;28;20025;-75
2021/05/07 03:28:57;;;;;;;4.30;2.60;;;13.40;99.90;;;;;;5015935;28;20029;-75
2021/05/07 03:31:23;;;;;;;6.28;2.83;;;13.30;99.90;;;;;;5016286;28;20029;-75
2021/05/07 03:33:49;;;;;;;6.53;3.05;;;13.30;99.90;;;;;;5016210;28;20037;-75
2021/05/07 03:36:15;;;;;;;5.85;2.95;;;13.30;99.90;;;;;;5015976;28;20026;-75
2021/05/07 03:38:41;;;;;;;7.13;2.63;;;13.20;99.90;;;;;;5016071;28;20105;-75
2021/05/07 03:41:07;;;;;;;5.85;2.72;;;13.40;99.90;;;;;;5016268;28;20026;-75
2021/05/07 03:43:34;;;;;;;3.88;2.90;;;13.40;99.90;;;;;;5014275;28;20025;-75
2021/05/07 03:46:00;;;;;;;9.10;3.35;;;13.40;99.90;;;;;;5016040;28;20444;-74
2021/05/07 03:48:26;;;;;;;5.00;2.80;;;13.40;99.90;;;;;;5015879;28;20097;-75
2021/05/07 03:50:53;;;;;;;6.70;2.67;;;13.50;99.90;;;;;;5015748;28;20018;-75
2021/05/07 03:53:20;;;;;;;6.47;3.10;;;13.50;99.90;;;;;;5015789;28;20104;-75
2021/05/07 03:55:46;;;;;;;4.57;2.70;;;13.40;99.90;;;;;;5015531;28;20029;-74
2021/05/07 03:58:13;;;;;;;5.68;3.25;;;13.20;99.90;;;;;;5015497;28;20482;-75
2021/05/07 04:00:40;;;;;;;6.60;3.15;;;13.10;99.90;;;;;;5015465;28;20478;-74
2021/05/07 04:03:06;;;;;;;7.88;4.05;;;13.10;99.90;;;;;;5015241;28;20096;-75
2021/05/07 04:05:32;;;;;;;7.78;3.60;;;13.10;99.90;;;;;;5015508;28;20481;-75
2021/05/07 04:10:29;;;;;;;7.93;3.10;;;13.20;99.90;;;;;;5015344;28;20018;-75
2021/05/07 04:15:21;;;;;;;6.07;3.20;;;13.00;99.90;;;;;;5015319;28;20030;-75
2021/05/07 04:17:47;;;;;;;5.88;3.20;;;13.00;99.90;;;;;;5015277;28;20117;-75
2021/05/07 04:20:13;;;;;;;4.72;2.88;;;13.00;99.90;;;;;;5015602;28;20100;-75
2021/05/07 04:22:39;;;;;;;5.15;3.50;;;13.10;99.90;;;;;;5014004;28;20037;-75
2021/05/07 04:25:06;;;;;;;6.43;3.63;;;13.00;99.90;;;;;;5014888;28;20032;-75
2021/05/07 04:27:32;;;;;;;6.20;3.88;;;12.90;99.90;;;;;;5015326;28;20064;-75
2021/05/07 04:29:58;;;;;;;7.57;3.47;;;12.90;99.90;;;;;;5014461;28;20014;-75
2021/05/07 04:32:24;;;;;;;4.35;3.75;;;12.90;99.90;;;;;;5015010;28;20382;-75
2021/05/07 04:34:49;;;;;;;9.05;3.92;;;12.80;99.90;;;;;;5015114;28;20037;-75
2021/05/07 04:37:15;;;;;;;7.20;3.70;;;12.80;99.90;;;;;;5015109;28;20049;-75
2021/05/07 04:39:41;;;;;;;5.53;3.40;;;12.90;99.90;;;;;;5014570;28;20670;-75
2021/05/07 04:42:07;;;;;;;8.57;4.15;;;12.90;99.90;;;;;;5014725;28;20022;-75
2021/05/07 04:44:32;;;;;;;7.95;3.78;;;12.90;99.90;;;;;;5014762;28;20030;-75
2021/05/07 04:46:59;;;;;;;4.63;3.80;;;12.90;99.90;;;;;;5014787;28;20423;-75
2021/05/07 04:49:26;;;;;;;7.57;3.55;;;12.90;99.90;;;;;;5014922;28;20021;-75
2021/05/07 04:51:52;;;;;;;6.75;3.90;;;13.00;99.90;;;;;;5014392;28;20056;-75
2021/05/07 04:54:18;;;;;;;12.60;3.97;;;13.00;99.90;;;;;;5014029;28;20033;-75
2021/05/07 04:56:44;;;;;;;5.40;3.60;;;13.10;99.90;;;;;;5016285;28;20042;-75
2021/05/07 04:59:09;;;;;;;4.03;3.47;;;13.00;99.90;;;;;;5027458;28;20026;-75
2021/05/07 05:01:35;;;;;;;6.10;3.65;;;12.90;99.90;;;;;;5026752;28;20046;-75
2021/05/07 05:04:01;;;;;;;7.07;4.10;;;13.00;99.90;;;;;;5013590;28;20022;-75
2021/05/07 05:06:26;;;;;;;7.80;4.13;;;13.00;99.90;;;;;;5012897;28;20022;-75
2021/05/07 05:08:52;;;;;;;8.15;3.78;;;13.10;99.90;;;;;;5013887;28;20030;-75
2021/05/07 05:11:18;;;;;;;5.78;3.75;;;13.10;99.90;;;;;;5015161;28;20038;-75
2021/05/07 05:13:43;;;;;;;7.90;4.32;;;13.00;99.90;;;;;;5013792;28;20398;-75
2021/05/07 05:16:10;;;;;;;11.95;4.07;;;13.00;99.90;;;;;;5013546;28;20034;-75
2021/05/07 05:18:39;;;;;;;7.43;4.10;;;13.00;99.90;;;;;;5012044;28;20037;-75
2021/05/07 05:21:06;;;;;;;10.00;3.92;;;13.00;99.90;;;;;;5011789;28;20038;-75
2021/05/07 05:23:33;;;;;;;3.65;3.17;;;13.10;99.90;;;;;;5011907;28;20129;-75
2021/05/07 05:25:59;;;;;;;5.05;3.30;;;13.00;99.90;;;;;;5012044;28;20052;-75
2021/05/07 05:28:26;;;;;;;5.82;3.67;;;13.00;99.90;;;;;;5019377;28;20132;-75
2021/05/07 05:30:53;;;;;;;5.65;3.55;;;13.00;99.90;;;;;;5012473;28;20030;-75
2021/05/07 05:33:18;;;;;;;8.40;3.92;;;13.00;99.90;;;;;;5014073;28;20088;-75
2021/05/07 05:35:46;;;;;;;6.45;3.90;;;13.00;99.90;;;;;;5012554;28;20375;-75
2021/05/07 05:38:15;;;;;;;7.00;3.97;;;13.10;99.90;;;;;;5022040;28;20040;-75
2021/05/07 05:40:41;;;;;;;4.97;3.38;;;13.10;99.90;;;;;;5007879;28;20027;-75
2021/05/07 05:43:08;;;;;;;7.88;3.80;;;13.20;99.90;;;;;;5012368;28;20022;-75
2021/05/07 05:45:34;;;;;;;5.18;3.50;;;13.10;99.90;;;;;;5012445;28;20079;-75
2021/05/07 05:48:08;;;;;;;4.57;3.67;;;13.20;99.90;;;;;;4997363;28;20026;-75
2021/05/07 05:50:35;;;;;;;4.32;3.28;;;13.20;99.90;;;;;;5008628;28;20033;-75
2021/05/07 05:53:01;;;;;;;5.22;3.45;;;13.20;99.90;;;;;;5009350;28;20394;-75
2021/05/07 05:55:27;;;;;;;6.72;3.85;;;13.20;99.90;;;;;;5012786;28;20022;-75
2021/05/07 05:57:53;;;;;;;7.30;4.00;;;13.20;99.90;;;;;;5004512;28;20029;-75
2021/05/07 06:00:20;;;;;;;6.78;3.90;;;13.30;99.90;;;;;;5006468;28;20034;-75
2021/05/07 06:02:45;;;;;;;7.78;4.20;;;13.30;99.90;;;;;;5011031;28;20610;-75
2021/05/07 06:05:13;;;;;;;6.70;4.07;;;13.30;99.90;;;;;;5011006;28;20036;-75
2021/05/07 06:07:40;;;;;;;6.70;4.10;;;13.50;99.90;;;;;;5011500;28;20053;-76
2021/05/07 06:10:09;;;;;;;5.30;3.30;;;13.50;99.90;;;;;;5010939;28;20041;-75
2021/05/07 06:12:35;;;;;;;5.85;3.67;;;13.50;99.90;;;;;;5011498;28;20018;-75
2021/05/07 06:15:00;;;;;;;6.03;3.40;;;13.50;99.90;;;;;;5011494;28;20022;-75
2021/05/07 06:17:27;;;;;;;3.45;2.60;;;13.50;99.90;;;;;;5013894;28;20033;-76
2021/05/07 06:19:53;;;;;;;4.10;2.30;;;13.50;99.90;;;;;;5004545;28;20037;-76
2021/05/07 06:22:19;;;;;;;4.38;2.67;;;13.50;99.90;;;;;;5010238;28;20402;-76
2021/05/07 06:24:45;;;;;;;3.97;1.90;;;13.50;99.90;;;;;;5009534;28;20033;-76
2021/05/07 06:27:12;;;;;;;4.93;2.65;;;13.50;99.90;;;;;;5010110;28;20033;-76
2021/05/07 06:29:37;;;;;;;3.22;1.70;;;13.50;99.90;;;;;;5012940;28;20022;-76
2021/05/07 06:32:03;;;;;;;2.47;1.90;;;13.50;99.90;;;;;;5010215;28;20037;-76
2021/05/07 06:34:29;;;;;;;2.20;1.42;;;13.60;99.90;;;;;;5010716;28;20025;-76
2021/05/07 06:36:55;;;;;;;3.15;1.90;;;13.60;99.90;;;;;;5010407;28;20033;-76
2021/05/07 06:39:20;;;;;;;2.80;2.53;;;13.70;99.90;;;;;;5012299;28;20037;-76
2021/05/07 06:41:46;;;;;;;2.33;1.83;;;13.70;99.90;;;;;;5009675;28;20030;-76
2021/05/07 06:44:12;;;;;;;4.07;2.20;;;13.60;99.90;;;;;;5008907;28;20040;-76
2021/05/07 06:46:40;;;;;;;2.85;2.40;;;13.60;99.90;;;;;;5007713;28;20574;-76
2021/05/07 06:49:06;;;;;;;3.72;2.28;;;13.70;99.90;;;;;;5009137;28;20418;-76
2021/05/07 06:51:31;;;;;;;5.43;2.13;;;13.80;99.90;;;;;;5008371;28;20017;-76
2021/05/07 06:53:57;;;;;;;2.53;2.33;;;13.80;99.90;;;;;;5013589;28;20076;-76
2021/05/07 06:56:23;;;;;;;3.22;2.58;;;13.80;99.90;;;;;;5013328;28;20029;-76
2021/05/07 06:58:49;;;;;;;3.83;2.83;;;13.80;99.90;;;;;;5012248;28;20030;-76
2021/05/07 07:01:15;;;;;;;2.42;2.05;;;13.90;99.90;;;;;;5013312;28;20033;-76
2021/05/07 07:03:41;;;;;;;2.60;2.15;;;13.90;99.90;;;;;;5014150;28;20041;-76
2021/05/07 07:06:07;;;;;;;2.83;2.33;;;13.80;99.90;;;;;;5015618;28;20477;-76
2021/05/07 07:08:33;;;;;;;2.70;2.45;;;13.80;99.90;;;;;;5014104;28;20056;-76
2021/05/07 07:10:59;;;;;;;2.78;2.10;;;14.00;99.90;;;;;;5013017;28;20030;-76
2021/05/07 07:13:25;;;;;;;2.60;2.40;;;14.10;99.90;;;;;;5012380;28;20033;-76
2021/05/07 07:15:51;;;;;;;2.42;1.83;;;14.10;99.90;;;;;;5012716;28;20087;-76
2021/05/07 07:18:21;;;;;;;2.85;1.88;;;14.00;99.90;;;;;;5014660;28;20112;-76
2021/05/07 07:20:47;;;;;;;2.40;1.90;;;14.00;99.90;;;;;;5014716;28;20014;-76
2021/05/07 07:23:14;;;;;;;1.70;1.60;;;14.00;99.90;;;;;;5016022;28;20026;-76
2021/05/07 07:25:39;;;;;;;1.98;1.60;;;14.10;99.90;;;;;;5014266;28;20026;-76
2021/05/07 07:28:06;;;;;;;2.33;1.73;;;13.90;99.90;;;;;;5014802;28;20014;-76
2021/05/07 07:30:32;;;;;;;5.03;2.40;;;13.90;99.90;;;;;;5013664;28;20026;-75
2021/05/07 07:32:57;;;;;;;2.75;1.73;;;13.80;99.90;;;;;;5014247;28;20397;-76
2021/05/07 07:35:23;;;;;;;2.03;1.83;;;13.80;99.90;;;;;;5014286;28;20029;-75
2021/05/07 07:37:49;;;;;;;2.08;1.60;;;13.90;99.90;;;;;;5014297;28;20026;-76
2021/05/07 07:40:15;;;;;;;1.63;1.42;;;13.80;99.90;;;;;;5014512;28;20029;-76
2021/05/07 07:42:41;;;;;;;2.92;1.30;;;13.80;99.90;;;;;;5014241;28;20398;-76
2021/05/07 07:45:08;;;;;;;2.00;1.40;;;13.70;99.90;;;;;;5014292;28;20097;-76
2021/05/07 07:47:34;;;;;;;1.98;1.52;;;13.70;99.90;;;;;;5018401;28;20034;-76
2021/05/07 07:50:01;;;;;;;3.17;1.40;;;13.80;99.90;;;;;;5016543;28;20018;-76
2021/05/07 07:52:26;;;;;;;2.13;1.52;;;13.90;99.90;;;;;;5018809;28;20022;-76
2021/05/07 07:54:52;;;;;;;3.15;1.27;;;13.90;99.90;;;;;;5022506;28;20017;-76
2021/05/07 07:57:18;;;;;;;2.38;1.30;;;13.90;99.90;;;;;;5013378;28;20037;-76
2021/05/07 07:59:44;;;;;;;2.42;1.50;;;13.90;99.90;;;;;;5016412;28;20025;-76
2021/05/07 08:02:09;;;;;;;1.13;0.98;;;13.90;99.90;;;;;;5013836;28;20108;-76
2021/05/07 08:04:36;;;;;;;1.35;0.82;;;14.00;99.90;;;;;;5016254;28;20091;-76
2021/05/07 08:07:02;;;;;;;1.08;1.08;;;13.90;99.90;;;;;;5013586;28;20037;-76
2021/05/07 08:09:28;;;;;;;1.00;1.00;;;14.00;99.90;;;;;;5024678;28;20017;-76
2021/05/07 08:11:53;;;;;;;1.60;1.23;;;14.10;99.90;;;;;;5017028;28;20037;-76
2021/05/07 08:14:19;;;;;;;0.95;0.90;;;14.20;99.90;;;;;;5013843;28;20113;-76
2021/05/07 08:16:45;;;;;;;3.70;1.25;;;14.30;99.90;;;;;;5017458;28;20026;-76
2021/05/07 08:19:11;;;;;;;1.08;0.65;;;14.20;99.90;;;;;;5010372;28;20088;-76
2021/05/07 08:21:38;;;;;;;3.53;1.13;;;14.00;99.90;;;;;;5024123;28;20474;-76
2021/05/07 08:24:04;;;;;;;0.90;0.70;;;13.90;99.90;;;;;;5012878;28;20401;-76
2021/05/07 08:26:30;;;;;;;1.13;1.02;;;14.10;99.90;;;;;;5012245;28;20022;-76
2021/05/07 08:28:55;;;;;;;4.82;2.05;;;14.20;99.90;;;;;;5011683;28;20033;-76
2021/05/07 08:31:21;;;;;;;1.30;0.93;;;14.10;99.90;;;;;;5013314;28;20509;-76
2021/05/07 08:33:48;;;;;;;1.40;1.00;;;14.00;99.90;;;;;;5012020;28;20105;-76
2021/05/07 08:36:15;;;;;;;1.83;1.02;;;14.00;99.90;;;;;;5013226;28;20029;-76
2021/05/07 08:38:52;;;;;;;1.77;0.82;;;14.10;99.90;;;;;;5012927;28;20116;-76
2021/05/07 08:41:20;;;;;;;1.52;1.00;;;14.20;99.90;;;;;;5012214;28;20081;-76
2021/05/07 08:43:52;;;;;;;1.27;1.05;;;14.30;99.90;;;;;;5012861;28;20117;-76
2021/05/07 08:46:20;;;;;;;1.83;1.00;;;14.20;99.90;;;;;;5012531;28;20030;-76
2021/05/07 08:48:48;;;;;;;0.85;0.82;;;14.20;99.90;;;;;;5013291;28;20101;-76
2021/05/07 08:51:16;;;;;;;0.73;0.73;;;14.20;99.90;;;;;;5011431;28;20065;-76
2021/05/07 08:53:48;;;;;;;0.90;0.82;;;14.10;99.90;;;;;;5014721;28;20026;-76
2021/05/07 08:56:19;;;;;;;1.13;0.82;;;14.10;99.90;;;;;;5019059;28;20389;-76
2021/05/07 08:58:50;;;;;;;2.60;0.80;;;14.10;99.90;;;;;;5013656;28;20380;-76
2021/05/07 09:01:16;;;;;;;1.20;0.95;;;14.20;99.90;;;;;;5004794;28;20029;-76
2021/05/07 09:03:48;;;;;;;1.77;0.60;;;14.20;99.90;;;;;;5007863;28;20393;-76
2021/05/07 09:06:22;;;;;;;1.13;1.00;;;14.10;99.90;;;;;;5012316;28;20038;-76
2021/05/07 09:08:49;;;;;;;1.45;0.80;;;14.00;99.90;;;;;;5013096;28;20024;-76
2021/05/07 09:11:21;;;;;;;1.13;0.82;;;14.00;99.90;;;;;;5012140;28;20050;-76
2021/05/07 09:14:07;;;;;;;2.38;0.80;;;13.80;99.90;;;;;;5007400;28;20100;-76
2021/05/07 09:16:32;;;;;;;1.30;0.80;;;13.90;99.90;;;;;;5010419;28;20502;-76
2021/05/07 09:18:58;;;;;;;1.67;1.00;;;13.80;99.90;;;;;;5013005;28;20032;-76
2021/05/07 09:21:24;;;;;;;2.10;0.88;;;13.80;99.90;;;;;;5013332;28;20041;-76
2021/05/07 09:23:51;;;;;;;2.25;0.93;;;13.80;99.90;;;;;;5012804;28;20429;-76
2021/05/07 09:26:17;;;;;;;1.40;1.20;;;13.80;99.90;;;;;;5013506;28;20494;-76
2021/05/07 09:29:03;;;;;;;1.00;0.75;;;13.90;99.90;;;;;;5010209;28;20025;-76
2021/05/07 09:31:34;;;;;;;1.30;0.80;;;14.00;99.90;;;;;;5004273;28;20018;-76
2021/05/07 09:34:07;;;;;;;0.80;0.80;;;14.10;99.90;;;;;;5011306;28;20021;-76
2021/05/07 09:36:35;;;;;;;1.50;1.00;;;14.20;99.90;;;;;;5011534;28;20383;-76
2021/05/07 09:39:03;;;;;;;1.52;0.80;;;14.20;99.90;;;;;;5011733;28;20018;-76
2021/05/07 09:41:45;;;;;;;0.57;0.50;;;14.10;99.90;;;;;;5008361;28;20036;-76
2021/05/07 09:44:20;;;;;;;3.15;1.17;;;14.10;99.90;;;;;;5013127;28;20030;-76
2021/05/07 09:46:47;;;;;;;1.55;0.73;;;14.10;99.90;;;;;;5013064;28;20080;-76
2021/05/07 09:49:29;;;;;;;0.60;0.60;;;14.10;99.90;;;;;;5013105;28;20022;-76
2021/05/07 09:51:56;;;;;;;0.95;0.90;;;14.20;99.90;;;;;;5012866;28;20032;-76
2021/05/07 09:54:22;;;;;;;2.15;1.02;;;14.10;99.90;;;;;;5011662;28;20036;-76
2021/05/07 09:56:49;;;;;;;0.70;0.68;;;14.00;99.90;;;;;;5012997;28;20060;-76
2021/05/07 09:59:15;;;;;;;0.80;0.80;;;14.10;99.90;;;;;;5012811;28;20033;-76
2021/05/07 10:01:45;;;;;;;1.02;0.80;;;14.20;99.90;;;;;;5012624;28;20498;-76
2021/05/07 10:04:15;;;;;;;1.45;1.10;;;14.20;99.90;;;;;;5013007;28;20494;-76
2021/05/07 10:06:42;;;;;;;0.73;0.63;;;14.30;99.90;;;;;;5012846;28;20120;-76
2021/05/07 10:09:09;;;;;;;1.77;0.88;;;14.40;99.90;;;;;;5012983;28;20538;-76
2021/05/07 10:11:45;;;;;;;1.58;0.98;;;14.50;99.90;;;;;;5011465;28;20482;-76
2021/05/07 10:14:15;;;;;;;0.80;0.80;;;14.40;99.90;;;;;;5012522;28;20525;-76
2021/05/07 10:16:41;;;;;;;0.98;0.98;;;14.50;99.90;;;;;;5012811;28;20029;-76
2021/05/07 10:19:10;;;;;;;1.05;0.93;;;14.70;99.90;;;;;;5012742;28;20038;-76
2021/05/07 10:21:41;;;;;;;2.17;1.00;;;14.70;99.90;;;;;;5012765;28;20437;-76
2021/05/07 10:24:09;;;;;;;;;;;14.80;99.90;;;;;;5013039;28;20025;-76
2021/05/07 10:26:53;;;;;;;0.80;0.80;;;14.70;99.90;;;;;;5012453;28;19905;-76
2021/05/07 10:29:24;;;;;;;1.95;1.05;;;14.40;99.90;;;;;;5005082;28;20506;-76
2021/05/07 10:31:51;;;;;;;0.88;0.88;;;14.40;99.90;;;;;;5011126;28;20105;-76
2021/05/07 10:34:18;;;;;;;0.70;0.70;;;14.50;99.90;;;;;;5011190;28;20394;-76
2021/05/07 10:36:49;;;;;;;1.17;0.82;;;14.60;99.90;;;;;;5011266;28;20101;-76
2021/05/07 10:39:26;;;;;;;0.80;0.80;;;14.70;99.90;;;;;;5011851;28;20033;-76
2021/05/07 10:41:54;;;;;;;1.67;1.23;;;14.70;99.90;;;;;;5010465;28;20138;-76
2021/05/07 10:44:21;;;;;;;2.03;1.10;;;14.80;99.90;;;;;;5011123;28;20030;-76
2021/05/07 10:47:07;;;;;;;1.30;0.60;;;14.70;99.90;;;;;;5011307;28;20524;-76
2021/05/07 10:49:34;;;;;;;2.38;1.00;;;14.70;99.90;;;;;;5009951;28;20026;-76
2021/05/07 10:52:01;;;;;;;2.92;1.00;;;14.80;99.90;;;;;;5010915;28;20466;-76
2021/05/07 10:54:56;;;;;;;1.80;1.55;;;14.90;99.90;;;;;;5010784;28;20033;-76
2021/05/07 10:57:27;;;;;;;4.30;1.08;;;15.00;99.90;;;;;;5010288;28;20088;-76
2021/05/07 10:59:57;;;;;;;1.27;1.08;;;15.10;99.90;;;;;;4997983;28;20028;-76
2021/05/07 11:02:23;;;;;;;;;;;15.20;99.90;;;;;;5007936;28;20077;-76
2021/05/07 11:04:50;;;;;;;1.52;1.20;;;15.50;99.90;;;;;;5006303;28;19948;-76
2021/05/07 11:07:30;;;;;;;1.25;1.13;;;15.80;99.90;;;;;;5010335;28;20038;-76
2021/05/07 11:10:13;;;;;;;;;;;17.20;99.90;;;;;;5013223;28;20030;-76
2021/05/07 11:12:43;;;;;;;3.58;1.13;;;17.80;99.90;;;;;;5010529;28;20012;-76
2021/05/07 11:15:16;;;;;;;3.38;1.40;;;18.30;99.90;;;;;;5013902;28;20021;-76
2021/05/07 11:17:42;;;;;;;1.42;1.33;;;19.20;99.90;;;;;;5006691;28;20113;-76
2021/05/07 11:20:09;;;;;;;6.72;1.27;;;18.60;99.90;;;;;;5010439;28;20022;-76
2021/05/07 11:22:35;;;;;;;1.30;1.15;;;18.60;99.90;;;;;;5009774;28;20037;-76
2021/05/07 11:25:02;;;;;;;4.57;1.25;;;18.30;99.90;;;;;;5013522;28;20026;-76
2021/05/07 11:27:30;;;;;;;1.50;1.20;;;17.60;99.90;;;;;;5011973;28;20054;-76
2021/05/07 11:30:02;;;;;;;1.83;1.20;;;17.60;99.90;;;;;;5010222;28;20084;-76
2021/05/07 11:32:27;;;;;;;3.00;0.90;;;18.40;99.90;;;;;;5007581;28;20030;-76
2021/05/07 11:34:54;;;;;;;1.42;1.20;;;18.10;99.90;;;;;;5010413;28;20101;-76
2021/05/07 11:37:21;;;;;;;1.42;1.02;;;18.20;99.90;;;;;;5015624;28;20482;-76
2021/05/07 11:40:02;;;;;;;2.30;1.38;;;18.00;99.90;;;;;;5011766;28;20559;-76
2021/05/07 11:42:28;;;;;;;1.30;1.20;;;18.10;99.90;;;;;;5009661;28;20108;-76
2021/05/07 11:44:54;;;;;;;2.30;1.20;;;19.20;99.90;;;;;;5012440;28;20030;-76
2021/05/07 11:47:19;;;;;;;2.42;1.33;;;19.10;99.90;;;;;;5013753;28;20025;-76
2021/05/07 11:49:49;;;;;;;2.03;1.45;;;20.70;99.90;;;;;;5013467;28;20045;-76
2021/05/07 11:52:14;;;;;;;2.43;1.33;;;23.30;99.90;;;;;;5013613;28;20060;-77
2021/05/07 11:54:45;;;;;;;2.50;0.93;;;20.70;99.90;;;;;;5015480;28;20038;-76
2021/05/07 11:57:12;;;;;;;2.00;1.35;;;20.30;99.90;;;;;;5013509;28;20030;-76
2021/05/07 11:59:46;;;;;;;1.67;1.33;;;19.50;99.90;;;;;;5014426;28;20076;-77
2021/05/07 12:02:22;;;;;;;1.50;1.40;;;19.40;99.90;;;;;;5011731;28;20096;-76
2021/05/07 12:04:48;;;;;;;1.17;0.80;;;20.70;99.90;;;;;;5013323;28;20593;-80
2021/05/07 12:07:22;;;;;;;3.08;1.42;;;19.90;99.90;;;;;;5012881;28;20375;-76
2021/05/07 12:09:49;;;;;;;5.60;1.35;;;19.80;99.90;;;;;;5013063;28;20022;-76
2021/05/07 12:12:15;;;;;;;1.25;1.15;;;19.70;99.90;;;;;;5013081;28;20474;-76
2021/05/07 12:14:46;;;;;;;1.65;1.10;;;19.50;99.90;;;;;;5011998;28;20075;-76
2021/05/07 12:17:13;;;;;;;2.42;1.50;;;19.60;99.90;;;;;;5011739;28;20513;-77
2021/05/07 12:19:39;;;;;;;1.95;1.60;;;19.50;99.90;;;;;;5015151;28;20076;-76
2021/05/07 12:22:05;;;;;;;2.33;1.30;;;19.70;99.90;;;;;;5012917;28;20029;-76
2021/05/07 12:24:31;;;;;;;1.67;1.35;;;20.40;99.90;;;;;;5012502;28;20123;-76
2021/05/07 12:26:56;;;;;;;1.88;1.65;;;21.80;99.90;;;;;;5013247;28;20029;-76
2021/05/07 12:29:33;;;;;;;4.10;1.40;;;23.50;99.90;;;;;;5012500;28;20014;-77
2021/05/07 12:32:07;;;;;;;2.33;1.35;;;27.10;94.60;;;;;;5012428;28;20036;-77
2021/05/07 12:34:33;;;;;;;1.50;1.40;;;24.90;94.50;;;;;;5012698;28;20113;-77
2021/05/07 12:37:01;;;;;;;1.52;1.40;;;23.70;99.90;;;;;;5012421;28;20148;-76
2021/05/07 12:39:28;;;;;;;2.58;1.40;;;24.00;99.90;;;;;;5014050;28;20021;-77
2021/05/07 12:41:55;;;;;;;1.85;1.45;;;22.90;99.90;;;;;;5012159;28;20398;-76
2021/05/07 12:44:24;;;;;;;1.40;1.30;;;22.30;99.90;;;;;;5015866;28;20029;-76
2021/05/07 12:46:49;;;;;;;1.70;1.60;;;21.80;99.90;;;;;;5012466;28;20017;-77
2021/05/07 12:49:18;;;;;;;2.13;1.92;;;22.80;99.90;;;;;;5012683;28;20026;-77
2021/05/07 12:51:43;;;;;;;1.65;1.45;;;23.40;99.90;;;;;;5013505;28;20478;-77
2021/05/07 12:54:09;;;;;;;2.95;1.52;;;23.40;99.90;;;;;;5013863;28;20026;-77